Aérodrome :
LOGIN :

S'inscrire | Disclaimer

   EN    FR    IT 

 










Légende :    VFR   VFR Marginal   IFR   IFR Intensif   IFR Très Intensif
Visi : 
Plafond : 
>= 8 km
>= 3000ft
5 à 8 km
1000 à 3000 ft
1500m à 5 km
500 à 1000 ft
800 à 1500m
200 à 500 ft
< 800m
< 200 ft
Symboles :   Orages  Brouillard  Fortes neiges  Fortes précipitations  Vent > 20 kt
SIGMETs :   Divers  Orages  Givrage  Turbulence  Onde Orograph.  Cendres Volcan.






- Altitude de l'aérodrome : 3463 ft
- Code IATA : ASR


LTAU - Erkilet AB

DERNIER METAR :
  • 260850Z VRB02KT CAVOK 07/M03 Q1018 NOSIG RMK RWY07 04004KT 330V120

METARs EXPIRÉS :
  • 260820Z 04003KT 320V110 CAVOK 05/M04 Q1018 NOSIG
  • 260750Z 06003KT 350V120 CAVOK 05/M04 Q1019 NOSIG RMK RWY07 05004KT 010V110
  • 260720Z 06003KT 330V120 CAVOK 03/M04 Q1019 NOSIG RMK RWY07 06005KT 360V110
  • 260650Z VRB02KT CAVOK 01/M04 Q1019 NOSIG RMK RWY07 04004KT 010V070

TAF TAF LTAU
Valide du 26 à 06h jusqu'au 27 à 06h UTC


260440Z 2606/2706 VRB02KT CAVOK
BECMG 2701/2703 SCT040



MET'MAP, la Météo Aéronautique d'un coup d'oeil ! - Copyright ORBIFLY Décembre 2007 - Disclaimer

ORBIFLY MET'MAP TEAM :

Programmation & Développement : Alexandra Zaïnal
Sur une idée originale de : Baudouin d'Aumeries
Assistance à la programmation : Marc-Olivier Méhu
Soutien technique & logistique : Manuel Goepfert

Contact : metmap@orbifly.com




SOURCES & CREDITS :

   NOAA